sensor_id;sensor_type;location;lat;lon;timestamp;pressure;altitude;pressure_sealevel;temperature;humidity
58919;BME280;44704;50.122;19.932;2022-12-07T00:01:34;97916.76;;;1.37;98.86
58919;BME280;44704;50.122;19.932;2022-12-07T00:04:03;97913.20;;;1.37;98.69
58919;BME280;44704;50.122;19.932;2022-12-07T00:06:38;97914.86;;;1.38;98.84
58919;BME280;44704;50.122;19.932;2022-12-07T00:09:09;97914.02;;;1.39;98.75
58919;BME280;44704;50.122;19.932;2022-12-07T00:11:37;97919.61;;;1.40;98.69
58919;BME280;44704;50.122;19.932;2022-12-07T00:14:06;97914.08;;;1.40;98.64
58919;BME280;44704;50.122;19.932;2022-12-07T00:16:34;97908.00;;;1.40;98.68
58919;BME280;44704;50.122;19.932;2022-12-07T00:19:02;97904.13;;;1.40;98.54
58919;BME280;44704;50.122;19.932;2022-12-07T00:21:32;97905.36;;;1.39;98.29
58919;BME280;44704;50.122;19.932;2022-12-07T00:24:00;97902.51;;;1.37;98.39
58919;BME280;44704;50.122;19.932;2022-12-07T00:26:29;97907.25;;;1.38;98.53
58919;BME280;44704;50.122;19.932;2022-12-07T00:29:01;97903.13;;;1.36;98.57
58919;BME280;44704;50.122;19.932;2022-12-07T00:31:31;97907.10;;;1.35;98.47
58919;BME280;44704;50.122;19.932;2022-12-07T00:33:59;97910.34;;;1.36;98.83
58919;BME280;44704;50.122;19.932;2022-12-07T00:36:27;97908.91;;;1.37;98.83
58919;BME280;44704;50.122;19.932;2022-12-07T00:38:55;97906.44;;;1.40;98.99
58919;BME280;44704;50.122;19.932;2022-12-07T00:41:25;97909.30;;;1.41;99.01
58919;BME280;44704;50.122;19.932;2022-12-07T00:43:53;97907.98;;;1.43;99.17
58919;BME280;44704;50.122;19.932;2022-12-07T00:46:21;97903.95;;;1.45;99.11
58919;BME280;44704;50.122;19.932;2022-12-07T00:48:50;97903.54;;;1.45;98.84
58919;BME280;44704;50.122;19.932;2022-12-07T00:51:20;97900.15;;;1.45;98.76
58919;BME280;44704;50.122;19.932;2022-12-07T00:53:47;97899.70;;;1.47;98.92
58919;BME280;44704;50.122;19.932;2022-12-07T00:56:23;97897.60;;;1.48;98.92
58919;BME280;44704;50.122;19.932;2022-12-07T00:58:56;97894.76;;;1.48;98.86
58919;BME280;44704;50.122;19.932;2022-12-07T01:01:25;97894.67;;;1.48;98.70
58919;BME280;44704;50.122;19.932;2022-12-07T01:03:53;97892.45;;;1.48;98.85
58919;BME280;44704;50.122;19.932;2022-12-07T01:06:21;97899.16;;;1.49;98.70
58919;BME280;44704;50.122;19.932;2022-12-07T01:08:49;97896.13;;;1.49;98.70
58919;BME280;44704;50.122;19.932;2022-12-07T01:11:19;97896.58;;;1.48;98.68
58919;BME280;44704;50.122;19.932;2022-12-07T01:13:46;97891.73;;;1.47;98.62
58919;BME280;44704;50.122;19.932;2022-12-07T01:16:15;97888.63;;;1.46;98.31
58919;BME280;44704;50.122;19.932;2022-12-07T01:18:46;97884.91;;;1.44;98.56
58919;BME280;44704;50.122;19.932;2022-12-07T01:21:20;97884.11;;;1.42;98.40
58919;BME280;44704;50.122;19.932;2022-12-07T01:23:47;97882.73;;;1.40;98.35
58919;BME280;44704;50.122;19.932;2022-12-07T01:26:17;97878.58;;;1.38;98.41
58919;BME280;44704;50.122;19.932;2022-12-07T01:28:45;97881.02;;;1.36;98.39
58919;BME280;44704;50.122;19.932;2022-12-07T01:31:14;97877.73;;;1.33;98.50
58919;BME280;44704;50.122;19.932;2022-12-07T01:33:44;97875.66;;;1.32;98.56
58919;BME280;44704;50.122;19.932;2022-12-07T01:36:19;97874.55;;;1.33;98.81
58919;BME280;44704;50.122;19.932;2022-12-07T01:39:04;97877.81;;;1.33;98.93
58919;BME280;44704;50.122;19.932;2022-12-07T01:41:34;97871.48;;;1.30;98.90
58919;BME280;44704;50.122;19.932;2022-12-07T01:44:28;97870.48;;;1.29;98.83
58919;BME280;44704;50.122;19.932;2022-12-07T01:47:01;97869.34;;;1.28;99.09
58919;BME280;44704;50.122;19.932;2022-12-07T01:52:16;97868.71;;;1.28;99.19
58919;BME280;44704;50.122;19.932;2022-12-07T01:54:46;97868.75;;;1.29;99.39
58919;BME280;44704;50.122;19.932;2022-12-07T01:57:14;97870.99;;;1.30;99.32
58919;BME280;44704;50.122;19.932;2022-12-07T01:59:43;97870.36;;;1.28;99.12
58919;BME280;44704;50.122;19.932;2022-12-07T02:02:19;97867.63;;;1.26;98.99
58919;BME280;44704;50.122;19.932;2022-12-07T02:04:47;97867.70;;;1.24;98.85
58919;BME280;44704;50.122;19.932;2022-12-07T02:07:14;97869.23;;;1.22;98.78
58919;BME280;44704;50.122;19.932;2022-12-07T02:09:42;97870.50;;;1.20;98.93
58919;BME280;44704;50.122;19.932;2022-12-07T02:12:09;97868.42;;;1.18;98.83
58919;BME280;44704;50.122;19.932;2022-12-07T02:14:36;97863.01;;;1.16;98.84
58919;BME280;44704;50.122;19.932;2022-12-07T02:30:34;97872.27;;;1.02;98.78
58919;BME280;44704;50.122;19.932;2022-12-07T02:33:26;97866.90;;;1.01;98.97
58919;BME280;44704;50.122;19.932;2022-12-07T02:36:08;97867.30;;;0.99;98.80
58919;BME280;44704;50.122;19.932;2022-12-07T02:38:47;97867.08;;;0.97;98.68
58919;BME280;44704;50.122;19.932;2022-12-07T02:41:24;97866.45;;;0.96;98.96
58919;BME280;44704;50.122;19.932;2022-12-07T02:44:06;97867.61;;;0.95;98.92
58919;BME280;44704;50.122;19.932;2022-12-07T02:46:44;97866.70;;;0.94;99.10
58919;BME280;44704;50.122;19.932;2022-12-07T02:49:16;97865.58;;;0.93;98.89
58919;BME280;44704;50.122;19.932;2022-12-07T02:51:44;97863.71;;;0.92;99.03
58919;BME280;44704;50.122;19.932;2022-12-07T02:54:13;97862.22;;;0.91;99.15
58919;BME280;44704;50.122;19.932;2022-12-07T03:15:49;97847.42;;;0.84;99.33
58919;BME280;44704;50.122;19.932;2022-12-07T03:18:20;97844.70;;;0.85;99.48
58919;BME280;44704;50.122;19.932;2022-12-07T03:20:51;97842.92;;;0.84;99.34
58919;BME280;44704;50.122;19.932;2022-12-07T03:23:21;97847.01;;;0.85;99.41
58919;BME280;44704;50.122;19.932;2022-12-07T03:25:55;97843.00;;;0.84;99.27
58919;BME280;44704;50.122;19.932;2022-12-07T03:28:27;97842.46;;;0.84;99.35
58919;BME280;44704;50.122;19.932;2022-12-07T03:31:12;97838.75;;;0.84;99.47
58919;BME280;44704;50.122;19.932;2022-12-07T03:33:59;97840.98;;;0.84;99.52
58919;BME280;44704;50.122;19.932;2022-12-07T03:36:37;97837.00;;;0.85;99.51
58919;BME280;44704;50.122;19.932;2022-12-07T03:39:26;97832.21;;;0.86;99.49
58919;BME280;44704;50.122;19.932;2022-12-07T03:41:54;97830.76;;;0.85;99.39
58919;BME280;44704;50.122;19.932;2022-12-07T03:44:23;97829.52;;;0.84;99.43
58919;BME280;44704;50.122;19.932;2022-12-07T03:47:13;97828.92;;;0.85;99.48
58919;BME280;44704;50.122;19.932;2022-12-07T03:49:56;97821.92;;;0.87;99.54
58919;BME280;44704;50.122;19.932;2022-12-07T03:52:30;97820.27;;;0.88;99.57
58919;BME280;44704;50.122;19.932;2022-12-07T03:55:10;97815.33;;;0.89;99.61
58919;BME280;44704;50.122;19.932;2022-12-07T03:57:39;97815.95;;;0.90;99.50
58919;BME280;44704;50.122;19.932;2022-12-07T04:00:09;97814.60;;;0.91;99.54
58919;BME280;44704;50.122;19.932;2022-12-07T04:02:41;97812.41;;;0.91;99.39
58919;BME280;44704;50.122;19.932;2022-12-07T04:05:10;97816.38;;;0.91;99.45
58919;BME280;44704;50.122;19.932;2022-12-07T04:07:37;97812.98;;;0.91;99.30
58919;BME280;44704;50.122;19.932;2022-12-07T04:10:05;97813.92;;;0.90;99.31
58919;BME280;44704;50.122;19.932;2022-12-07T04:12:32;97813.68;;;0.89;99.21
58919;BME280;44704;50.122;19.932;2022-12-07T04:14:59;97814.14;;;0.89;99.27
58919;BME280;44704;50.122;19.932;2022-12-07T04:17:26;97813.52;;;0.91;99.38
58919;BME280;44704;50.122;19.932;2022-12-07T04:19:52;97813.98;;;0.92;99.48
58919;BME280;44704;50.122;19.932;2022-12-07T04:22:19;97814.64;;;0.92;99.46
58919;BME280;44704;50.122;19.932;2022-12-07T04:24:46;97817.02;;;0.93;99.42
58919;BME280;44704;50.122;19.932;2022-12-07T04:27:13;97812.59;;;0.92;99.18
58919;BME280;44704;50.122;19.932;2022-12-07T04:29:40;97812.85;;;0.92;99.35
58919;BME280;44704;50.122;19.932;2022-12-07T04:32:07;97814.23;;;0.92;99.12
58919;BME280;44704;50.122;19.932;2022-12-07T04:34:34;97810.97;;;0.91;99.16
58919;BME280;44704;50.122;19.932;2022-12-07T04:37:01;97812.08;;;0.91;99.15
58919;BME280;44704;50.122;19.932;2022-12-07T04:39:29;97811.45;;;0.90;99.00
58919;BME280;44704;50.122;19.932;2022-12-07T04:41:58;97812.40;;;0.89;98.84
58919;BME280;44704;50.122;19.932;2022-12-07T04:44:26;97811.73;;;0.88;98.94
58919;BME280;44704;50.122;19.932;2022-12-07T04:46:53;97810.16;;;0.86;98.71
58919;BME280;44704;50.122;19.932;2022-12-07T04:49:21;97812.17;;;0.85;98.64
58919;BME280;44704;50.122;19.932;2022-12-07T04:51:48;97809.84;;;0.82;98.25
58919;BME280;44704;50.122;19.932;2022-12-07T04:54:15;97812.01;;;0.79;98.58
58919;BME280;44704;50.122;19.932;2022-12-07T04:56:43;97806.82;;;0.78;98.55
58919;BME280;44704;50.122;19.932;2022-12-07T04:59:11;97805.98;;;0.76;98.37
58919;BME280;44704;50.122;19.932;2022-12-07T05:01:38;97811.48;;;0.73;98.33
58919;BME280;44704;50.122;19.932;2022-12-07T05:04:05;97812.05;;;0.72;98.45
58919;BME280;44704;50.122;19.932;2022-12-07T05:06:33;97811.63;;;0.68;98.30
58919;BME280;44704;50.122;19.932;2022-12-07T05:09:00;97812.10;;;0.63;97.95
58919;BME280;44704;50.122;19.932;2022-12-07T05:11:27;97807.80;;;0.59;98.09
58919;BME280;44704;50.122;19.932;2022-12-07T05:14:08;97807.48;;;0.57;98.21
58919;BME280;44704;50.122;19.932;2022-12-07T05:16:36;97809.70;;;0.55;98.50
58919;BME280;44704;50.122;19.932;2022-12-07T05:19:04;97808.98;;;0.51;98.62
58919;BME280;44704;50.122;19.932;2022-12-07T05:21:31;97807.59;;;0.48;98.67
58919;BME280;44704;50.122;19.932;2022-12-07T05:23:58;97806.76;;;0.45;98.64
58919;BME280;44704;50.122;19.932;2022-12-07T05:26:26;97805.02;;;0.42;98.96
58919;BME280;44704;50.122;19.932;2022-12-07T05:28:54;97809.03;;;0.40;99.10
58919;BME280;44704;50.122;19.932;2022-12-07T05:31:23;97811.32;;;0.38;99.30
58919;BME280;44704;50.122;19.932;2022-12-07T05:33:50;97812.40;;;0.38;99.48
58919;BME280;44704;50.122;19.932;2022-12-07T05:36:17;97809.46;;;0.37;99.53
58919;BME280;44704;50.122;19.932;2022-12-07T05:38:45;97811.44;;;0.36;99.76
58919;BME280;44704;50.122;19.932;2022-12-07T05:41:14;97810.32;;;0.35;99.70
58919;BME280;44704;50.122;19.932;2022-12-07T05:44:00;97810.28;;;0.35;99.87
58919;BME280;44704;50.122;19.932;2022-12-07T05:46:27;97810.69;;;0.35;99.98
58919;BME280;44704;50.122;19.932;2022-12-07T05:48:54;97808.85;;;0.35;99.98
58919;BME280;44704;50.122;19.932;2022-12-07T05:51:21;97813.00;;;0.35;100.00
58919;BME280;44704;50.122;19.932;2022-12-07T05:53:48;97813.40;;;0.34;100.00
58919;BME280;44704;50.122;19.932;2022-12-07T05:56:15;97815.23;;;0.36;100.00
58919;BME280;44704;50.122;19.932;2022-12-07T05:58:42;97815.23;;;0.37;100.00
58919;BME280;44704;50.122;19.932;2022-12-07T06:01:28;97816.56;;;0.39;100.00
58919;BME280;44704;50.122;19.932;2022-12-07T06:03:55;97819.33;;;0.40;100.00
58919;BME280;44704;50.122;19.932;2022-12-07T06:06:22;97817.02;;;0.40;100.00
58919;BME280;44704;50.122;19.932;2022-12-07T06:08:49;97820.15;;;0.41;100.00
58919;BME280;44704;50.122;19.932;2022-12-07T06:11:15;97815.66;;;0.41;100.00
58919;BME280;44704;50.122;19.932;2022-12-07T06:14:01;97818.98;;;0.43;100.00
58919;BME280;44704;50.122;19.932;2022-12-07T06:16:28;97819.19;;;0.44;100.00
58919;BME280;44704;50.122;19.932;2022-12-07T06:18:55;97820.31;;;0.45;100.00
58919;BME280;44704;50.122;19.932;2022-12-07T06:21:22;97824.40;;;0.46;100.00
58919;BME280;44704;50.122;19.932;2022-12-07T06:23:49;97821.52;;;0.48;100.00
58919;BME280;44704;50.122;19.932;2022-12-07T06:26:16;97819.43;;;0.49;100.00
58919;BME280;44704;50.122;19.932;2022-12-07T06:28:43;97818.73;;;0.50;100.00
58919;BME280;44704;50.122;19.932;2022-12-07T06:31:10;97819.04;;;0.52;100.00
58919;BME280;44704;50.122;19.932;2022-12-07T06:33:36;97820.56;;;0.53;100.00
58919;BME280;44704;50.122;19.932;2022-12-07T06:36:03;97821.48;;;0.54;100.00
58919;BME280;44704;50.122;19.932;2022-12-07T06:38:30;97825.07;;;0.54;100.00
58919;BME280;44704;50.122;19.932;2022-12-07T06:40:57;97823.47;;;0.56;100.00
58919;BME280;44704;50.122;19.932;2022-12-07T06:43:24;97826.26;;;0.59;100.00
58919;BME280;44704;50.122;19.932;2022-12-07T06:45:51;97830.46;;;0.61;100.00
58919;BME280;44704;50.122;19.932;2022-12-07T06:48:18;97833.44;;;0.63;100.00
58919;BME280;44704;50.122;19.932;2022-12-07T06:50:46;97832.13;;;0.64;100.00
58919;BME280;44704;50.122;19.932;2022-12-07T06:53:13;97837.06;;;0.66;100.00
58919;BME280;44704;50.122;19.932;2022-12-07T06:55:40;97836.89;;;0.67;100.00
58919;BME280;44704;50.122;19.932;2022-12-07T06:58:07;97836.61;;;0.68;100.00
58919;BME280;44704;50.122;19.932;2022-12-07T07:00:34;97839.55;;;0.69;100.00
58919;BME280;44704;50.122;19.932;2022-12-07T07:03:01;97837.40;;;0.69;100.00
58919;BME280;44704;50.122;19.932;2022-12-07T07:05:29;97839.06;;;0.70;100.00
58919;BME280;44704;50.122;19.932;2022-12-07T07:07:55;97839.11;;;0.71;100.00
58919;BME280;44704;50.122;19.932;2022-12-07T07:10:22;97834.36;;;0.70;100.00
58919;BME280;44704;50.122;19.932;2022-12-07T07:12:49;97834.26;;;0.73;100.00
58919;BME280;44704;50.122;19.932;2022-12-07T07:15:16;97837.30;;;0.79;100.00
58919;BME280;44704;50.122;19.932;2022-12-07T07:17:44;97844.42;;;0.79;100.00
58919;BME280;44704;50.122;19.932;2022-12-07T07:20:11;97844.55;;;0.78;100.00
58919;BME280;44704;50.122;19.932;2022-12-07T07:22:38;97845.48;;;0.77;100.00
58919;BME280;44704;50.122;19.932;2022-12-07T07:25:05;97849.44;;;0.77;100.00
58919;BME280;44704;50.122;19.932;2022-12-07T07:27:32;97845.15;;;0.77;100.00
58919;BME280;44704;50.122;19.932;2022-12-07T07:29:59;97840.64;;;0.80;100.00
58919;BME280;44704;50.122;19.932;2022-12-07T07:32:26;97842.25;;;0.81;100.00
58919;BME280;44704;50.122;19.932;2022-12-07T07:34:53;97841.93;;;0.81;100.00
58919;BME280;44704;50.122;19.932;2022-12-07T07:37:20;97839.69;;;0.81;100.00
58919;BME280;44704;50.122;19.932;2022-12-07T07:39:47;97844.84;;;0.78;100.00
58919;BME280;44704;50.122;19.932;2022-12-07T07:42:14;97843.59;;;0.79;100.00
58919;BME280;44704;50.122;19.932;2022-12-07T07:44:43;97846.95;;;0.80;100.00
58919;BME280;44704;50.122;19.932;2022-12-07T07:47:10;97845.42;;;0.81;100.00
58919;BME280;44704;50.122;19.932;2022-12-07T07:49:37;97849.60;;;0.81;100.00
58919;BME280;44704;50.122;19.932;2022-12-07T07:52:07;97850.75;;;0.82;100.00
58919;BME280;44704;50.122;19.932;2022-12-07T07:54:35;97855.38;;;0.84;100.00
58919;BME280;44704;50.122;19.932;2022-12-07T07:57:02;97852.84;;;0.85;100.00
58919;BME280;44704;50.122;19.932;2022-12-07T07:59:29;97852.92;;;0.86;100.00
58919;BME280;44704;50.122;19.932;2022-12-07T08:01:56;97851.69;;;0.86;100.00
58919;BME280;44704;50.122;19.932;2022-12-07T08:04:23;97855.65;;;0.87;100.00
58919;BME280;44704;50.122;19.932;2022-12-07T08:07:00;97852.69;;;0.89;100.00
58919;BME280;44704;50.122;19.932;2022-12-07T08:09:27;97853.35;;;0.90;100.00
58919;BME280;44704;50.122;19.932;2022-12-07T08:11:55;97855.66;;;0.91;100.00
58919;BME280;44704;50.122;19.932;2022-12-07T08:14:31;97859.02;;;0.93;100.00
58919;BME280;44704;50.122;19.932;2022-12-07T08:16:59;97866.66;;;0.94;100.00
58919;BME280;44704;50.122;19.932;2022-12-07T08:19:30;97867.95;;;0.97;100.00
58919;BME280;44704;50.122;19.932;2022-12-07T08:21:57;97868.50;;;1.00;100.00
58919;BME280;44704;50.122;19.932;2022-12-07T08:24:28;97870.99;;;1.04;100.00
58919;BME280;44704;50.122;19.932;2022-12-07T08:26:56;97870.30;;;1.06;100.00
58919;BME280;44704;50.122;19.932;2022-12-07T08:29:22;97871.45;;;1.10;100.00
58919;BME280;44704;50.122;19.932;2022-12-07T08:31:49;97869.42;;;1.13;100.00
58919;BME280;44704;50.122;19.932;2022-12-07T08:34:16;97870.89;;;1.16;100.00
58919;BME280;44704;50.122;19.932;2022-12-07T08:36:43;97872.13;;;1.17;100.00
58919;BME280;44704;50.122;19.932;2022-12-07T08:39:10;97871.16;;;1.21;100.00
58919;BME280;44704;50.122;19.932;2022-12-07T08:41:37;97873.68;;;1.23;100.00
58919;BME280;44704;50.122;19.932;2022-12-07T08:44:04;97871.59;;;1.24;100.00
58919;BME280;44704;50.122;19.932;2022-12-07T08:46:36;97873.04;;;1.25;99.98
58919;BME280;44704;50.122;19.932;2022-12-07T08:49:11;97875.08;;;1.29;100.00
58919;BME280;44704;50.122;19.932;2022-12-07T08:51:40;97878.02;;;1.34;100.00
58919;BME280;44704;50.122;19.932;2022-12-07T08:54:10;97877.23;;;1.39;100.00
58919;BME280;44704;50.122;19.932;2022-12-07T08:56:38;97883.39;;;1.43;100.00
58919;BME280;44704;50.122;19.932;2022-12-07T08:59:06;97885.66;;;1.48;100.00
58919;BME280;44704;50.122;19.932;2022-12-07T09:01:33;97886.96;;;1.52;100.00
58919;BME280;44704;50.122;19.932;2022-12-07T09:04:01;97881.82;;;1.54;99.90
58919;BME280;44704;50.122;19.932;2022-12-07T09:06:28;97883.05;;;1.56;99.64
58919;BME280;44704;50.122;19.932;2022-12-07T09:08:58;97884.42;;;1.58;99.80
58919;BME280;44704;50.122;19.932;2022-12-07T09:11:26;97887.86;;;1.61;99.84
58919;BME280;44704;50.122;19.932;2022-12-07T09:13:53;97887.50;;;1.64;99.81
58919;BME280;44704;50.122;19.932;2022-12-07T09:16:20;97885.84;;;1.64;99.12
58919;BME280;44704;50.122;19.932;2022-12-07T09:18:49;97883.00;;;1.64;99.04
58919;BME280;44704;50.122;19.932;2022-12-07T09:21:16;97883.83;;;1.65;98.84
58919;BME280;44704;50.122;19.932;2022-12-07T09:23:43;97882.84;;;1.65;99.12
58919;BME280;44704;50.122;19.932;2022-12-07T09:26:10;97883.79;;;1.68;99.17
58919;BME280;44704;50.122;19.932;2022-12-07T09:28:37;97884.38;;;1.69;98.86
58919;BME280;44704;50.122;19.932;2022-12-07T09:31:05;97878.47;;;1.67;98.88
58919;BME280;44704;50.122;19.932;2022-12-07T09:33:33;97882.65;;;1.70;98.62
58919;BME280;44704;50.122;19.932;2022-12-07T09:36:00;97881.48;;;1.70;98.82
58919;BME280;44704;50.122;19.932;2022-12-07T09:38:27;97885.16;;;1.72;98.91
58919;BME280;44704;50.122;19.932;2022-12-07T09:40:54;97880.88;;;1.74;98.92
58919;BME280;44704;50.122;19.932;2022-12-07T09:43:25;97880.05;;;1.75;98.51
58919;BME280;44704;50.122;19.932;2022-12-07T09:45:54;97879.39;;;1.76;98.44
58919;BME280;44704;50.122;19.932;2022-12-07T09:48:34;97876.30;;;1.75;98.20
58919;BME280;44704;50.122;19.932;2022-12-07T09:53:39;97879.05;;;1.70;98.25
58919;BME280;44704;50.122;19.932;2022-12-07T09:56:06;97880.79;;;1.69;98.43
58919;BME280;44704;50.122;19.932;2022-12-07T09:58:33;97876.27;;;1.68;98.27
58919;BME280;44704;50.122;19.932;2022-12-07T10:01:09;97871.36;;;1.67;98.42
58919;BME280;44704;50.122;19.932;2022-12-07T10:03:40;97873.96;;;1.67;98.53
58919;BME280;44704;50.122;19.932;2022-12-07T10:06:07;97873.88;;;1.67;98.41
58919;BME280;44704;50.122;19.932;2022-12-07T10:08:34;97869.95;;;1.66;98.40
58919;BME280;44704;50.122;19.932;2022-12-07T10:11:02;97867.52;;;1.66;98.65
58919;BME280;44704;50.122;19.932;2022-12-07T10:14:12;97869.01;;;1.67;98.73
58919;BME280;44704;50.122;19.932;2022-12-07T10:16:41;97864.80;;;1.67;98.45
58919;BME280;44704;50.122;19.932;2022-12-07T10:19:27;97863.88;;;1.65;98.16
58919;BME280;44704;50.122;19.932;2022-12-07T10:22:15;97859.09;;;1.64;98.21
58919;BME280;44704;50.122;19.932;2022-12-07T10:24:46;97856.98;;;1.73;99.42
58919;BME280;44704;50.122;19.932;2022-12-07T10:27:18;97855.56;;;1.76;99.01
58919;BME280;44704;50.122;19.932;2022-12-07T10:29:51;97848.71;;;1.76;98.93
58919;BME280;44704;50.122;19.932;2022-12-07T10:34:45;97845.45;;;1.76;98.61
58919;BME280;44704;50.122;19.932;2022-12-07T10:39:45;97843.27;;;1.78;98.62
58919;BME280;44704;50.122;19.932;2022-12-07T10:45:08;97841.13;;;1.83;98.80
58919;BME280;44704;50.122;19.932;2022-12-07T10:47:58;97833.04;;;1.89;99.08
58919;BME280;44704;50.122;19.932;2022-12-07T11:07:14;97809.35;;;2.45;99.56
58919;BME280;44704;50.122;19.932;2022-12-07T11:12:28;97809.08;;;2.57;99.12
58919;BME280;44704;50.122;19.932;2022-12-07T11:15:24;97807.59;;;2.62;98.92
58919;BME280;44704;50.122;19.932;2022-12-07T11:18:19;97808.44;;;2.65;98.78
58919;BME280;44704;50.122;19.932;2022-12-07T11:21:12;97810.06;;;2.65;98.21
58919;BME280;44704;50.122;19.932;2022-12-07T11:32:51;97810.27;;;2.51;97.14
58919;BME280;44704;50.122;19.932;2022-12-07T11:37:49;97805.63;;;2.45;97.19
58919;BME280;44704;50.122;19.932;2022-12-07T11:40:35;97800.71;;;2.47;97.39
58919;BME280;44704;50.122;19.932;2022-12-07T11:45:34;97803.10;;;2.52;97.33
58919;BME280;44704;50.122;19.932;2022-12-07T11:48:10;97802.84;;;2.54;97.17
58919;BME280;44704;50.122;19.932;2022-12-07T11:50:46;97798.21;;;2.53;96.75
58919;BME280;44704;50.122;19.932;2022-12-07T11:53:21;97798.38;;;2.54;96.65
58919;BME280;44704;50.122;19.932;2022-12-07T11:56:11;97795.07;;;2.53;96.56
58919;BME280;44704;50.122;19.932;2022-12-07T12:06:43;97783.13;;;2.50;96.21
58919;BME280;44704;50.122;19.932;2022-12-07T12:09:16;97783.22;;;2.51;96.54
58919;BME280;44704;50.122;19.932;2022-12-07T12:17:40;97781.55;;;2.54;96.20
58919;BME280;44704;50.122;19.932;2022-12-07T12:20:20;97781.04;;;2.57;96.23
58919;BME280;44704;50.122;19.932;2022-12-07T12:25:22;97774.87;;;2.64;96.28
58919;BME280;44704;50.122;19.932;2022-12-07T12:27:52;97767.84;;;2.65;95.95
58919;BME280;44704;50.122;19.932;2022-12-07T12:30:37;97772.59;;;2.65;96.16
58919;BME280;44704;50.122;19.932;2022-12-07T12:33:27;97770.40;;;2.67;95.91
58919;BME280;44704;50.122;19.932;2022-12-07T12:46:57;97759.63;;;3.37;95.95
58919;BME280;44704;50.122;19.932;2022-12-07T12:51:56;97760.35;;;3.55;95.35
58919;BME280;44704;50.122;19.932;2022-12-07T12:54:29;97752.30;;;3.57;94.36
58919;BME280;44704;50.122;19.932;2022-12-07T12:57:22;97753.45;;;3.58;93.80
58919;BME280;44704;50.122;19.932;2022-12-07T13:02:45;97756.73;;;3.55;92.39
58919;BME280;44704;50.122;19.932;2022-12-07T13:05:19;97764.04;;;3.54;91.61
58919;BME280;44704;50.122;19.932;2022-12-07T13:15:47;97759.98;;;3.46;90.84
58919;BME280;44704;50.122;19.932;2022-12-07T13:23:38;97755.04;;;3.50;89.70
58919;BME280;44704;50.122;19.932;2022-12-07T13:34:36;97759.67;;;3.36;87.08
58919;BME280;44704;50.122;19.932;2022-12-07T13:37:30;97761.30;;;3.26;86.90
58919;BME280;44704;50.122;19.932;2022-12-07T13:40:00;97761.05;;;3.19;86.76
58919;BME280;44704;50.122;19.932;2022-12-07T13:42:38;97766.78;;;3.12;86.59
58919;BME280;44704;50.122;19.932;2022-12-07T13:45:28;97771.48;;;3.10;87.18
58919;BME280;44704;50.122;19.932;2022-12-07T13:48:41;97770.08;;;3.08;87.23
58919;BME280;44704;50.122;19.932;2022-12-07T13:51:17;97776.83;;;3.09;87.72
58919;BME280;44704;50.122;19.932;2022-12-07T13:53:53;97774.77;;;3.05;86.50
58919;BME280;44704;50.122;19.932;2022-12-07T13:56:23;97777.48;;;3.01;86.69
58919;BME280;44704;50.122;19.932;2022-12-07T13:58:53;97778.74;;;2.96;86.11
58919;BME280;44704;50.122;19.932;2022-12-07T14:01:21;97781.87;;;2.92;85.84
58919;BME280;44704;50.122;19.932;2022-12-07T14:03:48;97777.29;;;2.87;85.60
58919;BME280;44704;50.122;19.932;2022-12-07T14:06:23;97779.93;;;2.83;85.79
58919;BME280;44704;50.122;19.932;2022-12-07T14:09:17;97784.30;;;2.80;86.14
58919;BME280;44704;50.122;19.932;2022-12-07T14:11:46;97787.36;;;2.77;85.76
58919;BME280;44704;50.122;19.932;2022-12-07T14:14:19;97786.52;;;2.74;85.83
58919;BME280;44704;50.122;19.932;2022-12-07T14:17:12;97784.95;;;2.71;85.64
58919;BME280;44704;50.122;19.932;2022-12-07T14:22:28;97786.98;;;2.55;86.21
58919;BME280;44704;50.122;19.932;2022-12-07T14:25:18;97788.18;;;2.48;86.53
58919;BME280;44704;50.122;19.932;2022-12-07T14:27:53;97786.91;;;2.42;87.05
58919;BME280;44704;50.122;19.932;2022-12-07T14:30:27;97784.73;;;2.41;87.32
58919;BME280;44704;50.122;19.932;2022-12-07T14:33:00;97788.20;;;2.38;87.13
58919;BME280;44704;50.122;19.932;2022-12-07T14:35:28;97786.67;;;2.33;87.19
58919;BME280;44704;50.122;19.932;2022-12-07T14:37:55;97790.02;;;2.29;87.08
58919;BME280;44704;50.122;19.932;2022-12-07T14:40:25;97789.08;;;2.25;87.33
58919;BME280;44704;50.122;19.932;2022-12-07T14:42:58;97783.96;;;2.22;87.02
58919;BME280;44704;50.122;19.932;2022-12-07T14:45:27;97784.38;;;2.20;86.92
58919;BME280;44704;50.122;19.932;2022-12-07T14:47:54;97782.02;;;2.17;87.20
58919;BME280;44704;50.122;19.932;2022-12-07T14:50:21;97785.29;;;2.16;86.79
58919;BME280;44704;50.122;19.932;2022-12-07T14:55:38;97794.02;;;2.12;87.38
58919;BME280;44704;50.122;19.932;2022-12-07T14:58:05;97796.40;;;2.10;87.43
58919;BME280;44704;50.122;19.932;2022-12-07T15:00:32;97790.67;;;2.07;87.28
58919;BME280;44704;50.122;19.932;2022-12-07T15:03:00;97797.19;;;2.06;87.32
58919;BME280;44704;50.122;19.932;2022-12-07T15:05:27;97798.52;;;2.06;87.43
58919;BME280;44704;50.122;19.932;2022-12-07T15:07:54;97797.44;;;2.05;87.26
58919;BME280;44704;50.122;19.932;2022-12-07T15:10:27;97802.73;;;2.04;87.39
58919;BME280;44704;50.122;19.932;2022-12-07T15:12:59;97800.95;;;2.04;87.16
58919;BME280;44704;50.122;19.932;2022-12-07T15:15:46;97802.48;;;2.03;87.21
58919;BME280;44704;50.122;19.932;2022-12-07T15:18:13;97804.66;;;2.03;87.23
58919;BME280;44704;50.122;19.932;2022-12-07T15:20:41;97807.15;;;2.03;87.28
58919;BME280;44704;50.122;19.932;2022-12-07T15:23:07;97804.58;;;2.02;87.40
58919;BME280;44704;50.122;19.932;2022-12-07T15:25:34;97806.77;;;2.03;87.70
58919;BME280;44704;50.122;19.932;2022-12-07T15:28:01;97809.17;;;2.03;87.60
58919;BME280;44704;50.122;19.932;2022-12-07T15:30:28;97805.85;;;2.03;87.57
58919;BME280;44704;50.122;19.932;2022-12-07T15:32:55;97809.42;;;2.03;87.57
58919;BME280;44704;50.122;19.932;2022-12-07T15:35:22;97808.56;;;2.07;87.84
58919;BME280;44704;50.122;19.932;2022-12-07T15:37:49;97815.21;;;2.08;87.74